Time;durP1;ratioP1;P1;durP2;ratioP2;P2;SDS_P1;SDS_P2;PMS_P1;PMS_P2;Temp;Humidity;BMP_temperature;BMP_pressure;BME280_temperature;BME280_humidity;BME280_pressure;Samples;Min_cycle;Max_cycle;Signal;HPM_P1;HPM_P2
2023/06/14 00:01:38;;;;;;;5.65;2.97;;;14.40;77.90;;;14.27;54.40;96732.59;5042515;28;20025;-37
2023/06/14 00:04:08;;;;;;;5.32;3.00;;;14.40;77.60;;;14.27;55.21;96729.94;5041821;28;20074;-38
2023/06/14 00:06:34;;;;;;;3.90;3.13;;;14.40;78.30;;;14.27;56.04;96729.94;5036309;28;20094;-37
2023/06/14 00:09:00;;;;;;;4.75;3.08;;;14.40;79.70;;;14.26;56.60;96728.22;5046137;28;20028;-37
2023/06/14 00:11:26;;;;;;;3.92;2.85;;;14.40;79.40;;;14.24;55.27;96730.13;5042594;28;20044;-37
2023/06/14 00:13:52;;;;;;;6.80;3.05;;;14.40;78.40;;;14.22;55.22;96725.88;5046718;28;20487;-37
2023/06/14 00:16:19;;;;;;;4.15;2.97;;;14.40;78.30;;;14.21;56.36;96734.78;5042603;28;20155;-37
2023/06/14 00:18:45;;;;;;;4.03;3.10;;;14.30;79.10;;;14.20;57.66;96738.41;5047192;28;20115;-37
2023/06/14 00:21:12;;;;;;;5.55;3.00;;;14.30;80.10;;;14.10;58.55;96725.72;5039551;28;20040;-37
2023/06/14 00:23:37;;;;;;;4.68;2.90;;;14.20;80.60;;;14.11;58.03;96739.81;5043326;28;20099;-38
2023/06/14 00:26:03;;;;;;;4.80;2.75;;;14.20;80.30;;;14.09;57.57;96739.91;5040494;28;20238;-39
2023/06/14 00:28:29;;;;;;;7.10;3.40;;;14.20;80.00;;;14.06;59.14;96742.72;5038452;28;20545;-37
2023/06/14 00:30:55;;;;;;;4.60;3.13;;;14.20;81.00;;;14.01;59.60;96742.16;5034336;28;20183;-38
2023/06/14 00:33:21;;;;;;;4.82;3.50;;;14.20;81.50;;;13.98;58.40;96742.38;5035127;28;20183;-38
2023/06/14 00:35:47;;;;;;;5.25;3.35;;;14.10;80.70;;;13.96;58.23;96741.56;5036613;28;20494;-38
2023/06/14 00:38:13;;;;;;;4.15;3.30;;;14.10;80.40;;;13.92;58.44;96734.78;5034888;28;20040;-37
2023/06/14 00:40:38;;;;;;;4.97;3.10;;;14.10;80.70;;;13.89;58.00;96741.13;5035782;28;20036;-37
2023/06/14 00:43:04;;;;;;;5.53;3.25;;;14.10;80.40;;;13.92;57.35;96735.63;5033537;28;20032;-38
2023/06/14 00:45:31;;;;;;;7.55;3.15;;;14.00;80.00;;;13.89;58.14;96730.53;5030573;28;20810;-37
2023/06/14 00:47:57;;;;;;;4.68;3.33;;;14.00;80.60;;;13.83;58.31;96733.53;5039577;28;20526;-37
2023/06/14 00:50:24;;;;;;;6.15;3.28;;;14.00;80.70;;;13.80;59.70;96736.38;5050237;28;20041;-37
2023/06/14 00:52:50;;;;;;;5.03;3.10;;;13.90;81.50;;;13.74;60.92;96731.44;5043009;28;20489;-39
2023/06/14 00:55:16;;;;;;;5.13;2.75;;;13.90;82.40;;;13.68;61.15;96731.81;5032984;28;20052;-37
2023/06/14 00:57:42;;;;;;;8.52;3.22;;;13.80;82.50;;;13.61;61.02;96726.03;5033766;28;20032;-37
2023/06/14 01:00:09;;;;;;;4.80;3.20;;;13.80;82.50;;;13.60;61.00;96734.06;5035095;28;20394;-37
2023/06/14 01:02:39;;;;;;;4.72;3.00;;;13.70;82.50;;;13.54;62.08;96736.13;5036411;28;20394;-37
2023/06/14 01:05:06;;;;;;;3.88;3.05;;;13.70;83.10;;;13.51;62.55;96736.34;5035470;28;20640;-38
2023/06/14 01:07:56;;;;;;;4.57;3.10;;;13.60;83.60;;;13.49;61.45;96724.09;5030916;28;20035;-37
2023/06/14 01:10:37;;;;;;;4.28;3.03;;;13.60;83.00;;;13.47;61.06;96729.50;5029182;28;20184;-38
2023/06/14 01:13:20;;;;;;;3.92;3.10;;;13.60;82.60;;;13.45;63.13;96736.69;5036427;28;20432;-38
2023/06/14 01:15:47;;;;;;;6.25;3.50;;;13.60;84.00;;;13.40;64.12;96738.75;5022523;28;20036;-39
2023/06/14 01:18:19;;;;;;;4.88;3.35;;;13.60;84.50;;;13.35;64.14;96741.69;5032585;28;20055;-37
2023/06/14 01:20:50;;;;;;;6.65;3.75;;;13.50;84.50;;;13.30;63.76;96737.56;5040046;28;20064;-37
2023/06/14 01:23:20;;;;;;;6.18;3.38;;;13.50;84.30;;;13.28;64.31;96747.38;5030523;28;23492;-37
2023/06/14 01:25:47;;;;;;;8.43;3.22;;;13.40;84.60;;;13.21;63.93;96752.19;5026975;28;20433;-37
2023/06/14 01:28:16;;;;;;;8.65;3.30;;;13.40;84.50;;;13.21;64.60;96748.66;5030153;28;21434;-37
2023/06/14 01:30:45;;;;;;;8.02;3.53;;;13.40;84.90;;;13.16;65.50;96744.50;5029567;28;20032;-37
2023/06/14 01:33:13;;;;;;;4.15;3.00;;;13.30;85.40;;;13.13;65.39;96749.97;5026047;28;20032;-37
2023/06/14 01:35:42;;;;;;;5.07;3.25;;;13.30;85.30;;;13.10;65.49;96741.34;5029158;28;20434;-37
2023/06/14 01:38:08;;;;;;;5.38;3.67;;;13.30;85.40;;;13.08;66.78;96743.22;5039265;28;20047;-37
2023/06/14 01:40:35;;;;;;;4.13;3.38;;;13.20;86.20;;;12.98;66.21;96738.47;5045691;28;20328;-37
2023/06/14 01:43:03;;;;;;;6.60;3.33;;;13.20;86.00;;;12.99;66.71;96739.31;5041409;28;20399;-38
2023/06/14 01:45:29;;;;;;;4.80;3.17;;;13.20;86.20;;;12.97;66.81;96747.38;5038804;28;20036;-37
2023/06/14 01:47:55;;;;;;;5.30;3.40;;;13.20;86.30;;;12.94;65.37;96746.69;5032066;28;20044;-37
2023/06/14 01:50:21;;;;;;;5.22;3.30;;;13.10;85.60;;;12.92;63.55;96748.53;5034495;28;20466;-37
2023/06/14 01:52:47;;;;;;;5.90;3.47;;;13.10;84.50;;;12.90;63.18;96747.78;5043723;28;20040;-37
2023/06/14 01:55:13;;;;;;;4.47;3.00;;;13.10;84.10;;;12.87;65.57;96745.31;5045160;28;20083;-37
2023/06/14 01:57:38;;;;;;;5.10;3.45;;;13.10;85.60;;;12.84;67.79;96740.19;5038308;28;20041;-37
2023/06/14 02:00:12;;;;;;;4.57;3.30;;;13.00;86.90;;;12.80;67.31;96739.53;5034282;28;20033;-37
2023/06/14 02:02:38;;;;;;;6.28;2.80;;;13.00;86.70;;;12.76;67.96;96741.50;5034922;28;20619;-37
2023/06/14 02:05:04;;;;;;;6.53;3.08;;;13.00;87.20;;;12.75;67.43;96742.41;5038552;28;20474;-37
2023/06/14 02:07:30;;;;;;;5.18;3.30;;;12.90;86.90;;;12.74;68.94;96746.00;5044013;28;20470;-37
2023/06/14 02:09:56;;;;;;;5.82;3.50;;;12.90;87.70;;;12.74;68.71;96739.84;5049175;28;20038;-38
2023/06/14 02:12:21;;;;;;;5.57;3.08;;;12.90;87.60;;;12.73;71.11;96749.59;5039425;28;20115;-38
2023/06/14 02:14:48;;;;;;;4.75;3.50;;;12.90;88.90;;;12.63;70.78;96724.56;5049938;28;20417;-39
2023/06/14 02:17:14;;;;;;;5.18;3.47;;;12.90;88.90;;;12.70;68.91;96747.09;5047023;28;20572;-37
2023/06/14 02:19:40;;;;;;;6.80;3.22;;;12.90;88.00;;;12.71;70.40;96748.81;5034489;28;20537;-37
2023/06/14 02:22:06;;;;;;;4.32;3.53;;;12.90;88.60;;;12.68;71.28;96746.34;5042329;28;20067;-37
2023/06/14 02:24:32;;;;;;;4.07;3.05;;;12.90;89.20;;;12.66;72.25;96742.09;5041659;28;20036;-38
2023/06/14 02:26:58;;;;;;;6.00;3.47;;;12.80;89.60;;;12.62;72.27;96746.69;5023071;28;20086;-38
2023/06/14 02:29:23;;;;;;;5.45;3.33;;;12.80;89.80;;;12.58;72.88;96746.00;5033836;28;20491;-37
2023/06/14 02:31:49;;;;;;;5.72;3.50;;;12.80;90.00;;;12.55;73.69;96748.81;5042032;28;20028;-37
2023/06/14 02:34:17;;;;;;;4.10;3.33;;;12.70;90.10;;;12.50;73.70;96748.22;5029164;28;20379;-37
2023/06/14 02:36:43;;;;;;;7.03;3.45;;;12.70;90.20;;;12.41;73.79;96731.06;5038928;28;20051;-37
2023/06/14 02:39:10;;;;;;;4.45;3.10;;;12.60;90.50;;;12.42;72.88;96747.81;5035841;28;20171;-37
2023/06/14 02:41:35;;;;;;;4.78;3.28;;;12.60;90.00;;;12.38;74.11;96739.19;5038962;28;20086;-37
2023/06/14 02:44:01;;;;;;;4.38;3.28;;;12.60;90.30;;;12.32;74.24;96738.66;5038176;28;20020;-37
2023/06/14 02:46:27;;;;;;;6.78;3.08;;;12.50;90.30;;;12.30;75.96;96744.03;5041430;28;20047;-37
2023/06/14 02:48:52;;;;;;;6.43;3.67;;;12.50;90.80;;;12.26;75.56;96739.84;5038589;28;20028;-37
2023/06/14 02:51:18;;;;;;;5.15;3.70;;;12.40;90.70;;;12.21;75.54;96729.50;5037684;28;20086;-37
2023/06/14 02:53:44;;;;;;;5.05;3.63;;;12.40;90.70;;;12.22;76.99;96739.16;5041636;28;20029;-37
2023/06/14 02:56:11;;;;;;;6.88;3.20;;;12.40;91.00;;;12.19;76.28;96741.13;5035981;28;20029;-37
2023/06/14 02:58:38;;;;;;;5.10;3.50;;;12.40;90.90;;;12.16;76.96;96742.13;5039856;28;20481;-37
2023/06/14 03:01:07;;;;;;;4.53;3.45;;;12.40;91.00;;;12.16;76.64;96743.91;5036279;28;20033;-37
2023/06/14 03:03:33;;;;;;;5.63;3.65;;;12.30;91.00;;;12.14;76.84;96748.44;5043592;28;20452;-38
2023/06/14 03:06:03;;;;;;;6.70;3.42;;;12.30;91.10;;;12.11;77.92;96744.16;5037197;28;20025;-37
2023/06/14 03:08:31;;;;;;;4.90;3.38;;;12.30;91.30;;;12.06;79.14;96746.22;5042912;28;20037;-38
2023/06/14 03:10:57;;;;;;;6.75;3.70;;;12.20;91.60;;;11.97;79.63;96731.69;5044992;28;20021;-38
2023/06/14 03:13:23;;;;;;;10.32;3.75;;;12.20;91.70;;;11.97;79.52;96744.91;5037439;28;20035;-39
2023/06/14 03:15:51;;;;;;;4.28;3.30;;;12.20;91.70;;;11.85;79.57;96729.66;5038250;28;20394;-37
2023/06/14 03:18:17;;;;;;;5.78;3.90;;;12.20;91.70;;;11.88;80.26;96748.00;5042295;28;20723;-37
2023/06/14 03:20:45;;;;;;;6.00;3.72;;;12.10;91.90;;;11.89;80.02;96752.34;5039896;28;20094;-37
2023/06/14 03:23:11;;;;;;;4.80;3.33;;;12.10;91.80;;;11.85;81.38;96756.09;5040140;28;20328;-37
2023/06/14 03:25:38;;;;;;;4.88;3.60;;;12.10;92.20;;;11.83;80.76;96750.88;5031990;28;20048;-37
2023/06/14 03:28:04;;;;;;;6.50;3.85;;;12.00;92.00;;;11.82;82.20;96761.50;5032094;28;20046;-38
2023/06/14 03:30:31;;;;;;;6.75;3.75;;;12.00;92.40;;;11.83;82.44;96765.88;5042287;28;20039;-37
2023/06/14 03:32:57;;;;;;;4.70;3.40;;;12.00;92.50;;;11.77;82.80;96750.31;5039039;28;20031;-37
2023/06/14 03:35:23;;;;;;;5.07;3.33;;;12.00;92.60;;;11.83;83.19;96764.09;5029962;28;20859;-37
2023/06/14 03:37:49;;;;;;;4.85;3.28;;;12.00;92.70;;;11.84;82.93;96770.22;5037680;28;20101;-37
2023/06/14 03:40:19;;;;;;;7.18;3.65;;;12.00;92.60;;;11.84;83.35;96765.81;5035638;28;20174;-37
2023/06/14 03:42:44;;;;;;;4.28;3.30;;;12.00;92.70;;;11.87;81.04;96774.50;5036367;28;20024;-37
2023/06/14 03:45:10;;;;;;;5.53;3.70;;;12.10;92.30;;;11.89;81.39;96777.91;5036081;28;20663;-37
2023/06/14 03:47:36;;;;;;;8.10;3.78;;;12.10;92.30;;;11.87;82.36;96774.50;5037037;28;20620;-37
2023/06/14 03:50:03;;;;;;;4.68;3.28;;;12.10;92.60;;;11.89;83.70;96785.84;5038186;28;20151;-37
2023/06/14 03:52:29;;;;;;;6.15;3.30;;;12.10;92.90;;;11.88;83.88;96785.00;5032348;28;20036;-37
2023/06/14 03:54:55;;;;;;;5.68;3.35;;;12.10;93.00;;;11.86;83.55;96768.34;5027257;28;20161;-37
2023/06/14 03:57:23;;;;;;;4.68;3.13;;;12.10;92.90;;;11.92;82.75;96783.06;5037709;28;20098;-37
2023/06/14 03:59:49;;;;;;;5.72;3.60;;;12.20;92.80;;;11.95;82.12;96789.06;5037952;28;20140;-37
2023/06/14 04:02:16;;;;;;;5.25;3.40;;;12.10;92.60;;;11.98;82.37;96788.03;5038114;28;20345;-37
2023/06/14 04:04:45;;;;;;;3.97;3.42;;;12.20;92.70;;;12.03;82.31;96794.78;5040355;28;20028;-38
2023/06/14 04:07:12;;;;;;;5.78;3.50;;;12.20;92.70;;;12.05;82.19;96792.06;5040409;28;20061;-37
2023/06/14 04:09:38;;;;;;;7.03;3.65;;;12.30;92.80;;;12.14;84.44;96794.22;5041164;28;20666;-38
2023/06/14 04:12:05;;;;;;;5.00;3.17;;;12.30;93.20;;;12.21;82.77;96800.03;5035845;28;20066;-37
2023/06/14 04:14:32;;;;;;;4.93;3.45;;;12.40;92.90;;;12.26;81.25;96799.78;5043442;28;20051;-37
2023/06/14 04:16:58;;;;;;;4.82;3.50;;;12.50;92.60;;;12.29;78.84;96791.69;5045040;28;20588;-38
2023/06/14 04:19:24;;;;;;;5.65;3.60;;;12.60;92.00;;;12.38;78.90;96791.19;5034446;28;20032;-38
2023/06/14 04:21:50;;;;;;;6.40;3.80;;;12.60;92.00;;;12.51;79.23;96813.41;5036482;28;20553;-37
2023/06/14 04:24:16;;;;;;;3.90;3.30;;;12.80;92.10;;;12.63;77.48;96817.16;5035434;28;20573;-38
2023/06/14 04:26:47;;;;;;;5.18;3.55;;;12.90;91.80;;;12.71;76.45;96812.31;5037379;28;20028;-38
2023/06/14 04:29:15;;;;;;;4.10;3.45;;;12.90;91.50;;;12.81;76.84;96812.66;5037012;28;20044;-37
2023/06/14 04:31:42;;;;;;;5.22;3.53;;;13.00;91.60;;;12.80;77.18;96803.88;5028509;28;20130;-37
2023/06/14 04:34:08;;;;;;;5.80;3.72;;;13.10;91.70;;;12.96;76.27;96809.16;5033487;28;20039;-38
2023/06/14 04:36:36;;;;;;;6.25;3.63;;;13.20;91.50;;;13.09;74.62;96814.63;5040167;28;20032;-37
2023/06/14 04:39:03;;;;;;;4.43;3.33;;;13.30;91.20;;;13.16;73.76;96810.69;5045099;28;20028;-38
2023/06/14 04:41:30;;;;;;;4.75;3.50;;;13.40;91.00;;;13.25;73.89;96817.25;5044574;28;20037;-38
2023/06/14 04:43:58;;;;;;;6.28;3.70;;;13.50;91.00;;;13.35;72.88;96818.47;5041722;28;20033;-37
2023/06/14 04:46:24;;;;;;;7.22;3.40;;;13.60;90.90;;;13.42;73.02;96816.31;5044488;28;20032;-38
2023/06/14 04:48:50;;;;;;;5.78;3.65;;;13.60;90.80;;;13.52;72.94;96817.50;5043259;28;20077;-37
2023/06/14 04:51:16;;;;;;;5.55;4.00;;;13.70;90.90;;;13.63;71.17;96826.63;5042551;28;20021;-39
2023/06/14 04:53:43;;;;;;;6.18;3.80;;;13.90;90.90;;;13.72;70.29;96829.56;5038534;28;20034;-37
2023/06/14 04:56:09;;;;;;;4.95;3.92;;;13.90;90.20;;;13.81;70.36;96838.78;5049115;28;20052;-37
2023/06/14 04:58:35;;;;;;;4.13;3.40;;;14.00;90.20;;;13.85;71.84;96835.00;5047027;28;20029;-37
2023/06/14 05:01:02;;;;;;;6.03;3.60;;;14.00;90.40;;;13.87;74.89;96842.84;5046076;28;20497;-38
2023/06/14 05:03:28;;;;;;;4.78;3.00;;;14.10;91.20;;;13.87;75.33;96848.16;5036891;28;20032;-38
2023/06/14 05:05:54;;;;;;;5.65;3.35;;;14.10;91.40;;;13.84;75.18;96848.38;5046199;28;20029;-37
2023/06/14 05:08:23;;;;;;;5.28;3.53;;;14.10;91.30;;;13.86;74.82;96855.28;5043642;28;20788;-37
2023/06/14 05:10:49;;;;;;;4.60;3.55;;;14.10;91.20;;;13.89;74.67;96859.53;5050273;28;20131;-37
2023/06/14 05:13:15;;;;;;;9.43;3.78;;;14.10;91.20;;;13.91;73.92;96855.00;5049930;28;20747;-37
2023/06/14 05:15:41;;;;;;;4.47;3.45;;;14.10;91.10;;;14.00;72.20;96851.81;5049803;28;20120;-37
2023/06/14 05:18:08;;;;;;;6.22;3.80;;;14.20;90.80;;;14.06;70.67;96855.88;5050028;28;20044;-38
2023/06/14 05:20:34;;;;;;;6.75;3.92;;;14.30;90.40;;;14.12;70.13;96850.22;5035310;28;20398;-38
2023/06/14 05:23:00;;;;;;;5.97;3.72;;;14.30;90.30;;;14.19;70.12;96854.19;5040799;28;20454;-37
2023/06/14 05:25:28;;;;;;;4.55;3.33;;;14.40;90.20;;;14.42;69.83;96858.13;5041702;28;20040;-39
2023/06/14 05:27:53;;;;;;;4.80;3.40;;;14.50;90.30;;;14.94;66.94;96847.91;5046022;28;20271;-38
2023/06/14 05:30:19;;;;;;;6.80;3.45;;;14.70;90.20;;;15.50;63.93;96854.00;5042128;28;20687;-37
2023/06/14 05:32:45;;;;;;;4.50;3.65;;;15.10;89.40;;;15.87;61.71;96845.44;5048758;28;20032;-37
2023/06/14 05:35:11;;;;;;;5.25;3.40;;;15.40;88.30;;;16.05;62.20;96857.50;5047545;28;20104;-37
2023/06/14 05:37:36;;;;;;;6.45;3.58;;;15.60;88.30;;;16.04;62.48;96853.13;5047384;28;20045;-37
2023/06/14 05:40:05;;;;;;;8.00;3.47;;;15.70;88.40;;;15.96;62.13;96856.31;5046738;28;20448;-39
2023/06/14 05:42:32;;;;;;;5.22;3.80;;;15.80;87.70;;;15.90;62.66;96861.19;5042302;28;20097;-40
2023/06/14 05:44:57;;;;;;;7.00;3.80;;;15.80;87.50;;;15.88;62.43;96871.94;5048323;28;20047;-40
2023/06/14 05:47:23;;;;;;;6.97;3.72;;;15.90;87.20;;;15.87;61.86;96867.56;5050114;28;20032;-39
2023/06/14 05:49:49;;;;;;;5.10;3.70;;;15.90;86.60;;;15.92;62.05;96864.63;5039095;28;20021;-37
2023/06/14 05:52:15;;;;;;;4.82;3.67;;;16.00;86.60;;;15.98;62.80;96864.19;5060687;28;20032;-37
2023/06/14 05:54:41;;;;;;;5.90;3.22;;;16.10;87.00;;;16.06;62.33;96867.19;5047647;28;20035;-37
2023/06/14 05:57:07;;;;;;;4.78;3.38;;;16.10;86.50;;;16.17;61.34;96854.00;5056937;28;20482;-36
2023/06/14 05:59:32;;;;;;;5.30;3.50;;;16.30;86.30;;;16.31;61.78;96857.53;5050314;28;20063;-37
2023/06/14 06:01:58;;;;;;;5.43;3.88;;;16.40;86.40;;;16.47;61.20;96871.47;5050862;28;20128;-38
2023/06/14 06:04:24;;;;;;;8.38;3.97;;;16.50;86.10;;;16.63;60.15;96865.09;5045586;28;20056;-39
2023/06/14 06:06:50;;;;;;;6.53;4.00;;;16.70;85.80;;;16.75;59.13;96866.91;5050877;28;20693;-36
2023/06/14 06:09:15;;;;;;;5.28;3.72;;;16.80;84.80;;;16.92;58.00;96866.59;5052061;28;20039;-36
2023/06/14 06:11:41;;;;;;;7.35;4.35;;;17.00;84.60;;;17.08;56.49;96873.47;5052767;28;20032;-36
2023/06/14 06:14:07;;;;;;;5.57;3.97;;;17.10;83.10;;;17.25;57.82;96867.78;5053576;28;20024;-36
2023/06/14 06:16:33;;;;;;;6.57;3.60;;;17.30;83.90;;;17.43;55.66;96875.44;5056508;28;21242;-36
2023/06/14 06:18:59;;;;;;;5.47;3.90;;;17.40;83.60;;;17.55;54.21;96879.88;5053322;28;20584;-36
2023/06/14 06:21:25;;;;;;;5.60;3.50;;;17.50;81.40;;;17.69;54.66;96882.38;5053430;28;20561;-37
2023/06/14 06:23:50;;;;;;;5.63;3.40;;;17.70;81.80;;;17.83;54.46;96883.13;5054346;28;20059;-37
2023/06/14 06:26:16;;;;;;;6.28;3.50;;;17.80;81.70;;;17.94;54.89;96877.88;5055885;28;20042;-37
2023/06/14 06:28:42;;;;;;;5.50;3.50;;;17.90;82.00;;;18.02;52.71;96888.00;5052850;28;20024;-37
2023/06/14 06:31:07;;;;;;;6.88;3.15;;;18.00;79.90;;;18.15;52.92;96883.41;5057997;28;20481;-37
2023/06/14 06:33:33;;;;;;;11.05;4.00;;;18.10;80.50;;;18.27;53.18;96887.00;5053513;28;20040;-37
2023/06/14 06:35:59;;;;;;;6.72;3.60;;;18.20;80.60;;;18.34;52.28;96890.00;5048834;28;20086;-37
2023/06/14 06:38:25;;;;;;;6.10;3.78;;;18.30;79.50;;;18.44;52.88;96888.34;5051017;28;23773;-36
2023/06/14 06:40:50;;;;;;;6.63;3.40;;;18.40;80.40;;;18.51;52.77;96879.75;5051846;28;20393;-37
2023/06/14 06:43:17;;;;;;;4.80;3.70;;;18.50;80.40;;;18.69;50.34;96888.13;5053581;28;20493;-36
2023/06/14 06:45:43;;;;;;;7.22;3.40;;;18.60;77.70;;;18.82;49.58;96888.06;5053237;28;20077;-37
2023/06/14 06:48:12;;;;;;;6.30;3.70;;;18.70;77.00;;;18.96;49.62;96886.13;5049296;28;20060;-38
2023/06/14 06:50:38;;;;;;;6.32;3.55;;;18.80;77.00;;;19.05;49.11;96890.75;5051936;28;20024;-36
2023/06/14 06:53:05;;;;;;;8.23;4.05;;;19.00;77.30;;;19.22;46.84;96900.97;5055308;28;20020;-38
2023/06/14 06:55:30;;;;;;;7.65;3.85;;;19.10;74.70;;;19.35;47.30;96903.50;5051616;28;20037;-36
2023/06/14 06:57:56;;;;;;;5.18;3.80;;;19.20;74.40;;;19.51;45.91;96904.94;5049508;28;20036;-37
2023/06/14 07:00:22;;;;;;;6.57;3.85;;;19.30;74.10;;;19.55;46.49;96906.38;5051562;28;20121;-37
2023/06/14 07:02:47;;;;;;;6.13;3.70;;;19.40;73.30;;;19.68;49.03;96903.56;5053058;28;20509;-37
2023/06/14 07:05:13;;;;;;;5.45;3.40;;;19.50;75.20;;;19.74;48.07;96906.63;5050060;28;20390;-39
2023/06/14 07:07:39;;;;;;;5.03;3.47;;;19.60;76.10;;;19.75;46.06;96907.44;5051280;28;20083;-38
2023/06/14 07:10:05;;;;;;;7.38;3.90;;;19.70;73.60;;;19.79;44.08;96920.47;5051122;28;20039;-37
2023/06/14 07:12:33;;;;;;;5.97;3.88;;;19.70;71.30;;;19.77;44.13;96918.88;5055806;28;20056;-37
2023/06/14 07:15:00;;;;;;;4.90;3.65;;;19.70;70.60;;;19.89;45.29;96920.56;5050400;28;20050;-37
2023/06/14 07:17:26;;;;;;;6.00;4.30;;;19.80;71.90;;;19.80;44.57;96918.63;5054306;28;20082;-38
2023/06/14 07:19:53;;;;;;;6.38;4.05;;;19.80;71.00;;;19.88;45.46;96924.19;5046511;28;20394;-37
2023/06/14 07:22:19;;;;;;;5.53;3.60;;;19.80;72.30;;;19.99;46.72;96928.66;5049486;28;20043;-38
2023/06/14 07:24:45;;;;;;;6.30;3.53;;;19.90;73.60;;;20.08;47.44;96924.38;5054702;28;20028;-37
2023/06/14 07:27:13;;;;;;;6.13;4.20;;;20.00;73.90;;;20.19;46.88;96927.03;5048010;28;20101;-37
2023/06/14 07:29:38;;;;;;;5.18;3.65;;;20.20;73.50;;;20.28;45.38;96941.44;5048688;28;20074;-37
2023/06/14 07:32:05;;;;;;;8.23;4.25;;;20.20;72.10;;;20.34;44.78;96940.94;5057832;28;20033;-37
2023/06/14 07:34:31;;;;;;;5.45;3.58;;;20.20;71.20;;;20.41;43.64;96937.63;5047625;28;20052;-38
2023/06/14 07:36:57;;;;;;;5.45;3.95;;;20.30;70.10;;;20.40;43.07;96943.97;5048523;28;20044;-37
2023/06/14 07:39:23;;;;;;;5.43;3.60;;;20.30;69.40;;;20.44;43.29;96943.69;5049333;28;20027;-37
2023/06/14 07:41:49;;;;;;;6.53;4.15;;;20.40;69.40;;;20.36;43.53;96949.69;5055665;28;20059;-37
2023/06/14 07:44:15;;;;;;;6.53;3.92;;;20.40;69.00;;;20.43;43.10;96955.41;5049941;28;20159;-38
2023/06/14 07:46:41;;;;;;;4.97;2.85;;;20.40;68.70;;;20.51;43.44;96960.94;5048978;28;20040;-38
2023/06/14 07:49:07;;;;;;;5.75;3.80;;;20.50;68.80;;;20.36;43.14;96958.56;5049841;28;20176;-37
2023/06/14 07:51:33;;;;;;;4.80;3.95;;;20.40;68.40;;;20.49;43.37;96947.66;5046720;28;20539;-37
2023/06/14 07:54:03;;;;;;;5.45;3.90;;;20.40;69.30;;;20.41;43.07;96956.38;5048798;28;20029;-37
2023/06/14 07:56:28;;;;;;;8.63;4.07;;;20.40;68.60;;;20.48;42.94;96956.69;5052695;28;20462;-37
2023/06/14 07:58:54;;;;;;;4.90;3.90;;;20.50;68.80;;;20.57;42.75;96958.59;5054741;28;20609;-37
2023/06/14 08:01:20;;;;;;;6.00;3.78;;;20.50;68.30;;;20.60;42.46;96958.34;5052739;28;20013;-38
2023/06/14 08:03:46;;;;;;;4.47;3.35;;;20.60;68.30;;;20.71;42.02;96957.47;5054064;28;20059;-37
2023/06/14 08:06:12;;;;;;;5.93;4.20;;;20.60;67.80;;;20.70;43.66;96953.06;5054011;28;20841;-37
2023/06/14 08:08:37;;;;;;;5.93;3.95;;;20.60;68.20;;;20.72;44.02;96951.13;5048235;28;20419;-38
2023/06/14 08:11:03;;;;;;;4.63;3.58;;;20.70;68.90;;;20.63;43.55;96930.47;5058317;28;20082;-38
2023/06/14 08:13:29;;;;;;;8.68;3.92;;;20.70;69.50;;;20.74;42.71;96948.31;5056266;28;20107;-38
2023/06/14 08:15:57;;;;;;;5.50;4.43;;;20.70;68.40;;;20.57;42.65;96957.75;5051280;28;20061;-37
2023/06/14 08:18:22;;;;;;;8.85;4.50;;;20.60;67.70;;;20.45;43.46;96956.13;5056020;28;20024;-37
2023/06/14 08:20:48;;;;;;;8.93;4.15;;;20.50;68.70;;;20.57;44.42;96953.25;5051794;28;20564;-37
2023/06/14 08:23:15;;;;;;;8.80;4.45;;;20.50;70.30;;;20.66;44.48;96951.66;5057191;28;20393;-37
2023/06/14 08:25:41;;;;;;;5.13;3.60;;;20.60;71.10;;;20.79;44.22;96956.81;5049460;28;20039;-37
2023/06/14 08:28:07;;;;;;;6.55;4.50;;;20.70;70.50;;;20.79;43.51;96954.97;5057239;28;20041;-37
2023/06/14 08:30:32;;;;;;;6.22;3.75;;;20.80;69.80;;;20.89;46.29;96955.03;5049826;28;20032;-37
2023/06/14 08:32:58;;;;;;;4.95;3.70;;;20.80;72.60;;;21.10;44.94;96957.72;5050860;28;20040;-37
2023/06/14 08:35:24;;;;;;;5.13;3.30;;;21.00;71.60;;;21.30;44.99;96964.00;5049434;28;20110;-37
2023/06/14 08:37:49;;;;;;;7.25;4.00;;;21.20;71.80;;;;;;5051642;28;20449;-37
2023/06/14 08:40:23;;;;;;;6.47;4.30;;;21.30;69.80;;;21.34;42.95;96965.44;5042369;28;20060;-37
2023/06/14 08:42:54;;;;;;;10.25;3.83;;;21.40;68.60;;;;;;5052307;28;20071;-37
2023/06/14 08:45:24;;;;;;;6.20;4.03;;;21.40;68.30;;;21.37;42.90;96964.31;5047314;28;20044;-37
2023/06/14 08:47:57;;;;;;;5.63;3.88;;;21.40;68.70;;;21.49;43.77;96960.56;5052266;28;20040;-38
2023/06/14 08:50:26;;;;;;;14.25;4.45;;;21.40;69.60;;;21.58;42.88;96963.44;5050480;28;20446;-37
2023/06/14 08:52:57;;;;;;;8.95;4.03;;;21.50;68.70;;;21.68;42.93;96959.81;5046975;28;20025;-38
2023/06/14 08:55:26;;;;;;;6.38;3.80;;;21.60;69.40;;;21.84;42.58;96963.78;5048472;28;20038;-37
2023/06/14 08:57:55;;;;;;;5.50;3.63;;;21.70;68.50;;;21.90;42.88;96969.47;5049352;28;20120;-39
2023/06/14 09:00:22;;;;;;;6.90;3.78;;;21.80;68.00;;;21.93;41.68;96971.03;5054437;28;20896;-37
2023/06/14 09:02:48;;;;;;;4.22;3.67;;;21.90;67.10;;;22.02;43.70;96972.00;5052125;28;20028;-37
2023/06/14 09:05:14;;;;;;;4.57;3.40;;;21.90;68.20;;;22.04;41.50;96965.53;5047471;28;20211;-38
2023/06/14 09:07:41;;;;;;;7.43;3.95;;;22.00;67.50;;;22.07;40.61;96967.09;5049420;28;20047;-39
2023/06/14 09:10:13;;;;;;;5.63;4.18;;;22.10;65.90;;;22.00;41.46;96972.19;5051941;28;20096;-37
2023/06/14 09:12:39;;;;;;;11.20;4.47;;;22.00;66.30;;;21.86;40.39;96969.88;5053950;28;20374;-37
2023/06/14 09:15:08;;;;;;;5.88;4.18;;;22.00;64.80;;;21.76;40.49;96969.84;5053525;28;20460;-39
2023/06/14 09:17:38;;;;;;;4.40;3.67;;;21.80;65.20;;;21.84;41.51;96972.72;5053083;28;20046;-37
2023/06/14 09:20:08;;;;;;;7.68;4.18;;;21.80;66.10;;;21.76;41.37;96974.38;5051405;28;20719;-37
2023/06/14 09:22:34;;;;;;;5.93;4.20;;;21.70;65.60;;;21.78;42.01;96975.91;5054619;28;20036;-39
2023/06/14 09:25:00;;;;;;;5.63;3.67;;;21.80;67.10;;;21.91;42.14;96968.47;5047914;28;20079;-38
2023/06/14 09:27:26;;;;;;;6.78;4.50;;;21.80;67.40;;;21.87;41.30;96975.09;5051828;28;20036;-38
2023/06/14 09:29:53;;;;;;;7.03;3.80;;;21.90;66.00;;;21.98;41.08;96967.91;5056314;28;20070;-38
2023/06/14 09:32:18;;;;;;;10.15;4.57;;;22.00;65.60;;;22.05;41.81;96971.75;5052879;28;20021;-39
2023/06/14 09:34:45;;;;;;;7.03;4.00;;;22.00;66.80;;;22.19;41.29;96970.50;5050930;28;20028;-38
2023/06/14 09:37:11;;;;;;;9.38;4.07;;;22.10;65.90;;;22.36;41.98;96971.66;5055265;28;20041;-37
2023/06/14 09:39:52;;;;;;;7.75;4.47;;;22.30;67.00;;;22.42;41.25;96974.66;5056498;28;20032;-39
2023/06/14 09:42:19;;;;;;;4.53;4.00;;;22.40;66.40;;;22.56;41.07;96977.88;5053879;28;20036;-38
2023/06/14 09:44:48;;;;;;;9.85;3.95;;;22.50;65.80;;;22.66;41.39;96971.50;5055235;28;20040;-38
2023/06/14 09:47:15;;;;;;;7.63;4.18;;;22.60;66.20;;;22.77;38.64;96973.19;5054593;28;20450;-38
2023/06/14 09:49:42;;;;;;;11.80;4.35;;;22.80;63.70;;;22.82;38.67;96986.22;5057574;28;20082;-38
2023/06/14 09:52:17;;;;;;;5.45;3.80;;;22.80;62.90;;;22.90;38.99;96981.00;5054191;28;20040;-39
2023/06/14 09:54:46;;;;;;;5.13;4.43;;;22.90;62.60;;;23.06;40.25;96975.88;5058443;28;20504;-39
2023/06/14 09:57:14;;;;;;;8.85;4.30;;;23.00;64.70;;;23.17;39.07;96976.72;5044121;28;20036;-39
2023/06/14 09:59:50;;;;;;;9.75;4.13;;;23.20;63.40;;;23.31;38.82;96976.25;5054292;28;20025;-38
2023/06/14 10:02:50;;;;;;;8.65;3.80;;;23.30;62.40;;;23.47;37.86;96977.44;5052515;28;20028;-38
2023/06/14 10:05:20;;;;;;;11.80;4.47;;;23.50;61.10;;;23.42;38.18;96964.47;5049801;28;20032;-38
2023/06/14 10:07:58;;;;;;;4.47;3.83;;;23.50;61.60;;;23.47;38.29;96972.91;5048700;28;20745;-39
2023/06/14 10:10:25;;;;;;;8.60;3.80;;;23.50;61.50;;;23.57;34.76;96970.19;5073643;28;20048;-39
2023/06/14 10:12:51;;;;;;;7.78;3.58;;;23.60;57.40;;;23.80;35.24;96974.22;5054018;28;20065;-38
2023/06/14 10:15:31;;;;;;;4.25;3.85;;;23.80;57.90;;;24.02;36.27;96966.72;5050519;28;20363;-38
2023/06/14 10:18:07;;;;;;;9.75;3.90;;;24.00;58.70;;;24.11;36.32;96973.88;5051035;28;20301;-38
2023/06/14 10:20:42;;;;;;;5.07;3.80;;;24.10;57.80;;;24.21;32.63;96976.53;5050563;28;20036;-39